createdAt,value
2023-05-16T00:00:19.227Z,7.32
2023-05-16T00:02:47.381Z,7.25
2023-05-16T00:05:19.248Z,6.28
2023-05-16T00:07:50.018Z,7.47
2023-05-16T00:10:19.393Z,6.20
2023-05-16T00:12:58.787Z,6.38
2023-05-16T00:15:25.745Z,6.70
2023-05-16T00:17:54.867Z,7.00
2023-05-16T00:20:54.399Z,6.45
2023-05-16T00:23:29.923Z,5.72
2023-05-16T00:25:57.009Z,6.40
2023-05-16T00:28:24.247Z,5.35
2023-05-16T00:31:18.229Z,5.30
2023-05-16T00:33:45.135Z,6.37
2023-05-16T00:36:12.160Z,6.00
2023-05-16T00:38:39.269Z,6.50
2023-05-16T00:41:15.386Z,5.43
2023-05-16T00:44:17.743Z,5.53
2023-05-16T00:46:47.741Z,5.28
2023-05-16T00:49:16.055Z,4.85
2023-05-16T00:51:46.239Z,4.80
2023-05-16T00:54:14.940Z,5.10
2023-05-16T00:56:45.255Z,4.78
2023-05-16T00:59:23.695Z,6.13
2023-05-16T01:01:59.029Z,4.82
2023-05-16T01:04:30.830Z,5.55
2023-05-16T01:06:58.567Z,4.80
2023-05-16T01:09:27.923Z,4.82
2023-05-16T01:12:37.861Z,5.20
2023-05-16T01:15:39.748Z,4.95
2023-05-16T01:18:47.237Z,4.43
2023-05-16T01:21:47.254Z,4.65
2023-05-16T01:24:45.146Z,4.65
2023-05-16T01:27:16.017Z,4.70
2023-05-16T01:29:42.952Z,4.45
2023-05-16T01:32:09.812Z,4.60
2023-05-16T01:34:39.649Z,4.15
2023-05-16T01:37:24.996Z,3.70
2023-05-16T01:40:16.767Z,4.47
2023-05-16T01:42:51.036Z,4.10
2023-05-16T01:48:27.760Z,4.38
2023-05-16T01:51:06.301Z,3.53
2023-05-16T01:53:45.802Z,5.72
2023-05-16T01:56:26.821Z,3.67
2023-05-16T01:59:12.045Z,4.00
2023-05-16T02:01:45.535Z,4.93
2023-05-16T02:04:24.463Z,4.13
2023-05-16T02:07:25.950Z,4.20
2023-05-16T02:09:59.859Z,3.95
2023-05-16T02:12:29.903Z,4.07
2023-05-16T02:14:57.245Z,3.97
2023-05-16T02:17:24.642Z,4.45
2023-05-16T02:19:55.586Z,3.67
2023-05-16T02:22:22.862Z,4.00
2023-05-16T02:24:49.823Z,3.72
2023-05-16T02:27:16.581Z,4.15
2023-05-16T02:29:45.864Z,4.20
2023-05-16T02:32:12.574Z,4.05
2023-05-16T02:34:45.346Z,3.58
2023-05-16T02:37:13.478Z,5.25
2023-05-16T02:39:46.682Z,4.50
2023-05-16T02:42:13.756Z,4.28
2023-05-16T02:44:43.132Z,5.00
2023-05-16T02:47:09.997Z,6.03
2023-05-16T02:52:18.916Z,4.78
2023-05-16T02:54:48.781Z,5.32
2023-05-16T02:57:22.858Z,4.93
2023-05-16T02:59:49.657Z,5.75
2023-05-16T03:02:16.310Z,8.27
2023-05-16T03:04:43.357Z,10.63
2023-05-16T03:07:10.344Z,5.93
2023-05-16T03:09:45.927Z,4.93
2023-05-16T03:12:12.671Z,5.38
2023-05-16T03:14:45.016Z,8.52
2023-05-16T03:17:11.768Z,10.27
2023-05-16T03:19:47.567Z,13.32
2023-05-16T03:22:20.627Z,5.47
2023-05-16T03:24:47.434Z,7.88
2023-05-16T03:27:17.300Z,6.65
2023-05-16T03:29:44.297Z,6.45
2023-05-16T03:32:12.205Z,5.70
2023-05-16T03:34:50.945Z,4.15
2023-05-16T03:37:20.173Z,4.30
2023-05-16T03:39:50.013Z,4.25
2023-05-16T03:42:18.803Z,6.15
2023-05-16T03:44:48.705Z,5.90
2023-05-16T03:47:16.093Z,5.82
2023-05-16T03:49:45.838Z,4.47
2023-05-16T03:52:14.792Z,4.43
2023-05-16T03:54:47.058Z,4.47
2023-05-16T03:57:17.047Z,5.20
2023-05-16T03:59:47.013Z,4.93
2023-05-16T04:02:19.874Z,3.60
2023-05-16T04:04:46.817Z,5.35
2023-05-16T04:07:16.325Z,5.10
2023-05-16T04:09:46.213Z,4.80
2023-05-16T04:12:15.532Z,4.20
2023-05-16T04:14:49.864Z,5.03
2023-05-16T04:17:16.686Z,4.10
2023-05-16T04:19:46.617Z,4.50
2023-05-16T04:22:13.671Z,4.53
2023-05-16T04:24:45.386Z,4.45
2023-05-16T04:27:12.422Z,5.28
2023-05-16T04:29:41.966Z,4.15
2023-05-16T04:32:09.003Z,4.88
2023-05-16T04:34:39.808Z,4.95
2023-05-16T04:37:08.631Z,3.83
2023-05-16T04:39:36.979Z,4.53
2023-05-16T04:42:07.688Z,4.45
2023-05-16T04:44:34.615Z,4.18
2023-05-16T04:47:09.199Z,5.57
2023-05-16T04:49:36.017Z,4.28
2023-05-16T04:52:03.338Z,4.63
2023-05-16T04:54:30.017Z,4.68
2023-05-16T04:56:57.343Z,4.28
2023-05-16T04:59:27.413Z,3.92
2023-05-16T05:01:57.279Z,5.45
2023-05-16T05:04:25.147Z,3.97
2023-05-16T05:06:54.832Z,6.40
2023-05-16T05:09:21.979Z,4.60
2023-05-16T05:11:48.702Z,5.60
2023-05-16T05:14:17.625Z,5.22
2023-05-16T05:16:47.238Z,4.30
2023-05-16T05:19:14.157Z,5.07
2023-05-16T05:21:43.351Z,5.13
2023-05-16T05:24:10.413Z,6.93
2023-05-16T05:26:37.459Z,5.93
2023-05-16T05:29:06.690Z,5.05
2023-05-16T05:31:35.057Z,4.53
2023-05-16T05:34:03.244Z,4.00
2023-05-16T05:36:33.108Z,6.28
2023-05-16T05:39:06.634Z,4.05
2023-05-16T05:41:33.505Z,5.85
2023-05-16T05:44:00.739Z,5.38
2023-05-16T05:46:27.948Z,4.78
2023-05-16T05:48:55.897Z,4.60
2023-05-16T05:51:29.703Z,4.20
2023-05-16T05:53:57.654Z,4.03
2023-05-16T05:56:26.370Z,5.18
2023-05-16T05:58:59.046Z,3.63
2023-05-16T06:07:09.060Z,4.13
2023-05-16T06:09:37.836Z,3.03
2023-05-16T06:15:02.022Z,3.15
2023-05-16T06:17:31.286Z,3.67
2023-05-16T06:20:11.322Z,4.28
2023-05-16T06:25:19.835Z,3.97
2023-05-16T06:27:46.655Z,3.13
2023-05-16T06:30:16.923Z,3.10
2023-05-16T06:32:46.855Z,2.85
2023-05-16T06:35:13.794Z,3.42
2023-05-16T06:37:42.895Z,2.50
2023-05-16T06:40:12.085Z,2.67
2023-05-16T06:42:39.722Z,3.53
2023-05-16T06:45:13.722Z,3.92
2023-05-16T06:47:50.106Z,2.60
2023-05-16T06:50:20.082Z,1.98
2023-05-16T06:52:56.062Z,3.28
2023-05-16T06:55:23.883Z,3.28
2023-05-16T06:58:18.289Z,2.88
2023-05-16T07:00:55.105Z,3.22
2023-05-16T07:03:25.316Z,2.53
2023-05-16T07:05:55.455Z,2.35
2023-05-16T07:08:22.244Z,2.42
2023-05-16T07:10:55.162Z,2.60
2023-05-16T07:13:21.900Z,2.60
2023-05-16T07:15:48.669Z,2.80
2023-05-16T07:18:18.157Z,2.78
2023-05-16T07:20:51.527Z,2.00
2023-05-16T07:23:21.045Z,2.97
2023-05-16T07:25:54.093Z,2.35
2023-05-16T07:28:22.125Z,2.30
2023-05-16T07:30:58.902Z,2.28
2023-05-16T07:33:28.172Z,2.30
2023-05-16T07:36:07.786Z,2.40
2023-05-16T07:38:47.957Z,2.30
2023-05-16T07:41:14.810Z,2.50
2023-05-16T07:43:41.539Z,1.98
2023-05-16T07:46:08.438Z,2.20
2023-05-16T07:48:35.383Z,2.67
2023-05-16T07:51:02.190Z,2.65
2023-05-16T07:53:31.311Z,2.20
2023-05-16T07:55:58.113Z,2.25
2023-05-16T07:58:25.250Z,2.00
2023-05-16T08:00:52.858Z,2.88
2023-05-16T08:03:24.123Z,2.92
2023-05-16T08:06:06.291Z,1.58
2023-05-16T08:08:36.487Z,2.92
2023-05-16T08:11:03.668Z,2.30
2023-05-16T08:13:31.707Z,2.58
2023-05-16T08:15:58.665Z,2.40
2023-05-16T08:18:25.539Z,2.92
2023-05-16T08:20:54.970Z,3.00
2023-05-16T08:23:21.852Z,2.33
2023-05-16T08:25:51.831Z,1.85
2023-05-16T08:28:18.614Z,2.17
2023-05-16T08:30:47.799Z,2.78
2023-05-16T08:33:15.221Z,2.22
2023-05-16T08:35:46.848Z,2.45
2023-05-16T08:38:13.732Z,2.40
2023-05-16T08:40:41.295Z,1.88
2023-05-16T08:43:08.727Z,2.20
2023-05-16T08:45:35.744Z,2.72
2023-05-16T08:48:08.694Z,3.28
2023-05-16T08:50:37.498Z,2.50
2023-05-16T08:53:14.826Z,2.67
2023-05-16T08:55:44.231Z,2.63
2023-05-16T08:58:13.000Z,2.20
2023-05-16T09:00:40.924Z,2.22
2023-05-16T09:03:08.465Z,2.03
2023-05-16T09:05:36.255Z,2.53
2023-05-16T09:08:03.226Z,1.77
2023-05-16T09:10:30.177Z,2.20
2023-05-16T09:12:57.122Z,2.63
2023-05-16T09:15:23.923Z,2.15
2023-05-16T09:18:01.487Z,2.55
2023-05-16T09:20:28.648Z,2.28
2023-05-16T09:23:00.924Z,3.25
2023-05-16T09:25:32.225Z,2.40
2023-05-16T09:28:03.049Z,2.00
2023-05-16T09:30:35.558Z,2.40
2023-05-16T09:33:06.637Z,2.20
2023-05-16T09:38:04.196Z,2.85
2023-05-16T09:40:34.104Z,2.30
2023-05-16T09:43:07.794Z,2.22
2023-05-16T09:45:36.926Z,2.92
2023-05-16T09:48:14.960Z,2.35
2023-05-16T09:50:54.410Z,2.97
2023-05-16T09:53:33.492Z,2.20
2023-05-16T09:56:12.658Z,1.92
2023-05-16T09:58:42.826Z,2.63
2023-05-16T10:01:13.018Z,2.78
2023-05-16T10:03:44.087Z,2.30
2023-05-16T10:06:13.745Z,2.88
2023-05-16T10:08:43.848Z,3.15
2023-05-16T10:11:17.126Z,3.00
2023-05-16T10:16:42.078Z,2.75
2023-05-16T10:19:13.944Z,2.53
2023-05-16T10:27:41.611Z,3.30
2023-05-16T10:30:10.985Z,2.95
2023-05-16T10:32:41.956Z,2.45
2023-05-16T10:35:11.098Z,3.05
2023-05-16T10:37:42.176Z,3.03
2023-05-16T10:40:11.638Z,2.97
2023-05-16T10:42:44.442Z,2.15
2023-05-16T10:45:37.009Z,2.58
2023-05-16T10:48:15.460Z,3.25
2023-05-16T10:51:03.578Z,2.40
2023-05-16T10:53:36.255Z,2.85
2023-05-16T10:56:12.045Z,2.15
2023-05-16T10:58:38.753Z,2.78
2023-05-16T11:01:30.394Z,2.55
2023-05-16T11:04:20.217Z,3.10
2023-05-16T11:07:28.377Z,3.33
2023-05-16T11:10:36.503Z,3.55
2023-05-16T11:13:26.502Z,1.92
2023-05-16T11:16:39.512Z,1.70
2023-05-16T11:19:10.986Z,2.35
2023-05-16T11:22:19.465Z,2.00
2023-05-16T11:25:14.370Z,2.78
2023-05-16T11:27:47.898Z,3.25
2023-05-16T11:30:19.404Z,1.90
2023-05-16T11:32:48.777Z,2.85
2023-05-16T11:35:18.687Z,2.65
2023-05-16T11:37:48.656Z,2.58
2023-05-16T11:40:17.294Z,2.97
2023-05-16T11:42:48.526Z,2.47
2023-05-16T11:45:23.021Z,2.03
2023-05-16T11:47:50.282Z,2.70
2023-05-16T11:50:23.759Z,3.08
2023-05-16T11:53:15.923Z,3.80
2023-05-16T11:55:43.054Z,2.80
2023-05-16T11:58:12.281Z,3.08
2023-05-16T12:03:38.893Z,1.77
2023-05-16T12:06:14.404Z,2.08
2023-05-16T12:19:48.118Z,3.20
2023-05-16T12:22:21.956Z,2.55
2023-05-16T12:27:33.575Z,3.22
2023-05-16T12:30:06.280Z,2.85
2023-05-16T12:36:01.681Z,3.13
2023-05-16T12:44:22.165Z,2.40
2023-05-16T13:06:12.051Z,2.10
2023-05-16T13:08:42.812Z,2.30
2023-05-16T13:16:36.094Z,2.95
2023-05-16T13:19:16.235Z,2.30
2023-05-16T13:29:51.582Z,2.25
2023-05-16T13:35:13.023Z,1.80
2023-05-16T13:37:42.713Z,2.00
2023-05-16T13:40:12.020Z,1.65
2023-05-16T13:48:10.173Z,2.60
2023-05-16T13:50:44.199Z,2.33
2023-05-16T13:58:37.059Z,2.97
2023-05-16T14:03:57.616Z,2.20
2023-05-16T14:26:10.968Z,2.03
2023-05-16T14:39:31.849Z,2.35
2023-05-16T14:42:08.683Z,2.90
2023-05-16T14:50:03.133Z,3.35
2023-05-16T14:52:42.280Z,2.70
2023-05-16T14:55:16.409Z,3.47
2023-05-16T15:00:29.561Z,3.60
2023-05-16T15:11:08.955Z,2.08
2023-05-16T15:13:36.085Z,2.60
2023-05-16T15:16:12.207Z,3.20
2023-05-16T15:18:42.816Z,2.80
2023-05-16T15:21:16.318Z,2.47
2023-05-16T15:26:39.030Z,3.47
2023-05-16T15:29:36.747Z,2.83
2023-05-16T15:32:12.041Z,2.88
2023-05-16T15:43:12.853Z,3.45
2023-05-16T15:48:25.437Z,3.40
2023-05-16T15:53:36.598Z,2.90
2023-05-16T15:56:06.222Z,3.38
2023-05-16T16:09:31.224Z,3.55
2023-05-16T16:11:58.091Z,3.45
2023-05-16T16:14:25.704Z,3.72
2023-05-16T16:16:55.131Z,4.00
2023-05-16T16:19:40.113Z,3.28
2023-05-16T16:22:07.004Z,3.13
2023-05-16T16:24:56.820Z,4.47
2023-05-16T16:27:26.451Z,3.63
2023-05-16T16:29:55.366Z,3.80
2023-05-16T16:32:23.335Z,5.85
2023-05-16T16:34:50.478Z,4.00
2023-05-16T16:37:17.299Z,4.10
2023-05-16T16:58:49.269Z,6.28
2023-05-16T17:01:16.161Z,6.68
2023-05-16T17:33:42.174Z,5.10
2023-05-16T17:41:37.853Z,5.07
2023-05-16T18:00:26.305Z,8.23
2023-05-16T18:21:46.492Z,8.13
2023-05-16T18:27:01.078Z,8.25
2023-05-16T18:37:32.187Z,11.15
2023-05-16T18:48:24.748Z,10.25
2023-05-16T18:56:28.045Z,11.35
2023-05-16T19:01:42.548Z,11.68
2023-05-16T19:04:09.463Z,13.07
2023-05-16T19:06:40.294Z,11.88
2023-05-16T19:14:34.183Z,12.95
2023-05-16T19:22:22.534Z,11.95
2023-05-16T19:24:51.308Z,12.30
2023-05-16T19:33:00.143Z,8.98
2023-05-16T19:38:15.929Z,11.57
2023-05-16T19:43:59.356Z,11.98
2023-05-16T19:46:30.573Z,10.73
2023-05-16T20:00:15.782Z,11.77
